createdAt,value
2017-05-01T00:00:13.321Z,99.99
2017-05-01T00:00:53.794Z,99.99
2017-05-01T00:01:34.283Z,99.99
2017-05-01T00:02:14.777Z,99.99
2017-05-01T00:02:55.354Z,99.99
2017-05-01T00:03:35.844Z,99.99
2017-05-01T00:04:16.358Z,99.99
2017-05-01T00:04:56.873Z,99.99
2017-05-01T00:05:37.329Z,99.99
2017-05-01T00:06:17.827Z,99.99
2017-05-01T00:06:58.284Z,99.87
2017-05-01T00:07:38.748Z,99.99
2017-05-01T00:08:19.270Z,99.99
2017-05-01T00:08:59.737Z,99.97
2017-05-01T00:09:40.240Z,99.99
2017-05-01T00:10:20.719Z,99.99
2017-05-01T00:11:01.207Z,99.99
2017-05-01T00:11:41.684Z,99.99
2017-05-01T00:12:22.175Z,99.99
2017-05-01T00:13:02.648Z,99.97
2017-05-01T00:13:43.149Z,99.99
2017-05-01T00:14:23.630Z,99.99
2017-05-01T00:15:04.114Z,99.99
2017-05-01T00:15:44.594Z,99.99
2017-05-01T00:16:25.077Z,99.99
2017-05-01T00:17:05.551Z,99.3
2017-05-01T00:17:46.038Z,99.49
2017-05-01T00:18:26.498Z,99.21
2017-05-01T00:19:07.007Z,99.21
2017-05-01T00:19:47.484Z,99.4
2017-05-01T00:20:27.976Z,99.58
2017-05-01T00:21:08.495Z,99.21
2017-05-01T00:21:48.966Z,99.4
2017-05-01T00:22:29.501Z,99.21
2017-05-01T00:23:09.975Z,99.58
2017-05-01T00:23:50.489Z,99.11
2017-05-01T00:24:31.004Z,99.11
2017-05-01T00:25:11.517Z,99.49
2017-05-01T00:25:52.011Z,99.3
2017-05-01T00:26:32.519Z,99.11
2017-05-01T00:27:13.028Z,98.92
2017-05-01T00:27:53.481Z,98.83
2017-05-01T00:28:33.956Z,99.21
2017-05-01T00:29:14.478Z,99.11
2017-05-01T00:29:54.970Z,98.92
2017-05-01T00:30:35.481Z,98.73
2017-05-01T00:31:15.972Z,99.11
2017-05-01T00:31:56.455Z,99.58
2017-05-01T00:32:36.944Z,98.83
2017-05-01T00:33:17.449Z,99.21
2017-05-01T00:33:57.924Z,98.92
2017-05-01T00:34:38.393Z,98.64
2017-05-01T00:35:18.882Z,98.73
2017-05-01T00:35:59.380Z,99.49
2017-05-01T00:36:39.867Z,99.4
2017-05-01T00:37:20.347Z,99.58
2017-05-01T00:38:00.837Z,99.3
2017-05-01T00:38:41.303Z,99.58
2017-05-01T00:39:21.809Z,99.11
2017-05-01T00:40:02.279Z,99.4
2017-05-01T00:40:42.763Z,99.49
2017-05-01T00:41:23.220Z,99.58
2017-05-01T00:42:03.691Z,99.49
2017-05-01T00:42:44.181Z,99.49
2017-05-01T00:43:24.678Z,99.58
2017-05-01T00:44:05.152Z,99.02
2017-05-01T00:44:45.689Z,99.16
2017-05-01T00:45:26.146Z,99.44
2017-05-01T00:46:06.635Z,99.35
2017-05-01T00:46:47.156Z,99.35
2017-05-01T00:47:27.604Z,99.68
2017-05-01T00:48:08.068Z,99.44
2017-05-01T00:48:48.570Z,99.35
2017-05-01T00:49:29.102Z,99.44
2017-05-01T00:50:09.550Z,99.35
2017-05-01T00:50:50.039Z,99.44
2017-05-01T00:51:30.583Z,99.54
2017-05-01T00:52:11.085Z,99.73
2017-05-01T00:52:51.570Z,99.99
2017-05-01T00:53:32.046Z,99.99
2017-05-01T00:54:12.508Z,99.82
2017-05-01T00:54:53.030Z,99.91
2017-05-01T00:55:33.521Z,99.99
2017-05-01T00:56:13.999Z,99.91
2017-05-01T00:56:54.480Z,99.82
2017-05-01T00:57:34.951Z,99.99
2017-05-01T00:58:15.416Z,99.99
2017-05-01T00:58:55.895Z,99.99
2017-05-01T00:59:36.385Z,99.99
2017-05-01T01:00:16.856Z,99.99
2017-05-01T01:00:57.338Z,99.99
2017-05-01T01:01:37.827Z,99.91
2017-05-01T01:02:18.308Z,99.82
2017-05-01T01:02:58.783Z,99.99
2017-05-01T01:03:39.267Z,99.91
2017-05-01T01:04:19.775Z,99.99
2017-05-01T01:05:00.223Z,99.99
2017-05-01T01:05:40.705Z,99.99
2017-05-01T01:06:21.160Z,99.99
2017-05-01T01:07:01.651Z,99.99
2017-05-01T01:07:42.171Z,99.99
2017-05-01T01:08:22.649Z,99.99
2017-05-01T01:09:03.146Z,99.99
2017-05-01T01:09:43.605Z,99.99
2017-05-01T01:10:24.122Z,99.99
2017-05-01T01:11:04.564Z,99.99
2017-05-01T01:11:45.053Z,99.99
2017-05-01T01:12:25.548Z,99.99
2017-05-01T01:13:06.040Z,99.99
2017-05-01T01:13:46.494Z,99.99
2017-05-01T01:14:26.990Z,99.91
2017-05-01T01:15:07.484Z,99.99
2017-05-01T01:15:47.969Z,99.99
2017-05-01T01:16:28.492Z,99.99
2017-05-01T01:17:08.984Z,99.99
2017-05-01T01:17:49.503Z,99.82
2017-05-01T01:18:29.983Z,99.82
2017-05-01T01:19:10.503Z,99.99
2017-05-01T01:19:51.008Z,99.82
2017-05-01T01:20:31.641Z,99.99
2017-05-01T01:21:12.106Z,99.82
2017-05-01T01:21:52.641Z,99.73
2017-05-01T01:22:33.144Z,99.82
2017-05-01T01:23:13.638Z,99.99
2017-05-01T01:23:54.160Z,99.99
2017-05-01T01:24:34.627Z,99.99
2017-05-01T01:25:15.118Z,99.99
2017-05-01T01:25:55.637Z,99.99
2017-05-01T01:26:36.094Z,99.99
2017-05-01T01:27:16.586Z,99.91
2017-05-01T01:27:57.074Z,99.91
2017-05-01T01:28:37.572Z,99.91
2017-05-01T01:29:18.051Z,99.82
2017-05-01T01:29:58.507Z,99.99
2017-05-01T01:30:39.000Z,99.99
2017-05-01T01:31:19.477Z,99.99
2017-05-01T01:31:59.944Z,99.91
2017-05-01T01:32:40.474Z,99.99
2017-05-01T01:33:20.930Z,99.99
2017-05-01T01:34:01.448Z,99.99
2017-05-01T01:34:41.926Z,99.99
2017-05-01T01:35:22.432Z,99.99
2017-05-01T01:36:02.928Z,99.99
2017-05-01T01:36:43.385Z,99.91
2017-05-01T01:37:23.912Z,99.99
2017-05-01T01:38:04.394Z,99.82
2017-05-01T01:38:44.868Z,99.73
2017-05-01T01:39:25.370Z,99.82
2017-05-01T01:40:05.850Z,99.91
2017-05-01T01:40:46.322Z,99.91
2017-05-01T01:41:26.816Z,99.99
2017-05-01T01:42:07.338Z,99.99
2017-05-01T01:43:55.365Z,99.99
2017-05-01T01:44:35.837Z,99.99
2017-05-01T01:45:16.322Z,99.99
2017-05-01T01:45:56.807Z,99.99
2017-05-01T01:46:37.277Z,99.99
2017-05-01T01:47:17.763Z,99.82
2017-05-01T01:47:58.262Z,99.99
2017-05-01T01:48:38.719Z,99.99
2017-05-01T01:49:19.197Z,99.99
2017-05-01T01:49:59.675Z,99.99
2017-05-01T01:50:40.164Z,99.99
2017-05-01T01:51:20.659Z,99.99
2017-05-01T01:52:01.143Z,99.91
2017-05-01T01:52:41.649Z,99.91
2017-05-01T01:53:22.108Z,99.99
2017-05-01T01:54:02.578Z,99.99
2017-05-01T01:54:43.056Z,99.99
2017-05-01T01:55:23.579Z,99.99
2017-05-01T01:56:04.061Z,99.99
2017-05-01T01:56:44.504Z,99.91
2017-05-01T01:57:24.988Z,99.91
2017-05-01T01:58:08.065Z,99.99
2017-05-01T01:58:48.542Z,99.99
2017-05-01T01:59:29.049Z,99.99
2017-05-01T02:00:09.535Z,99.99
2017-05-01T02:00:50.022Z,99.99
2017-05-01T02:01:30.479Z,99.99
2017-05-01T02:02:10.947Z,99.91
2017-05-01T02:02:51.444Z,99.73
2017-05-01T02:03:31.926Z,99.99
2017-05-01T02:04:12.417Z,99.99
2017-05-01T02:04:52.901Z,99.99
2017-05-01T02:05:33.351Z,99.99
2017-05-01T02:06:13.885Z,99.99
2017-05-01T02:06:54.356Z,99.99
2017-05-01T02:07:34.825Z,99.99
2017-05-01T02:08:15.295Z,99.99
2017-05-01T02:08:55.765Z,99.99
2017-05-01T02:09:36.248Z,99.99
2017-05-01T02:10:16.723Z,99.99
2017-05-01T02:10:57.204Z,99.99
2017-05-01T02:11:37.717Z,99.99
2017-05-01T02:12:18.189Z,99.99
2017-05-01T02:12:58.673Z,99.91
2017-05-01T02:13:39.169Z,99.99
2017-05-01T02:14:19.642Z,99.99
2017-05-01T02:15:00.143Z,99.91
2017-05-01T02:15:40.641Z,99.99
2017-05-01T02:16:21.118Z,99.91
2017-05-01T02:17:01.602Z,99.99
2017-05-01T02:17:42.112Z,99.99
2017-05-01T02:18:22.600Z,99.91
2017-05-01T02:19:03.117Z,99.91
2017-05-01T02:19:43.570Z,99.99
2017-05-01T02:20:24.061Z,99.82
2017-05-01T02:21:04.513Z,99.91
2017-05-01T02:21:44.990Z,99.99
2017-05-01T02:22:25.471Z,99.82
2017-05-01T02:23:05.950Z,99.99
2017-05-01T02:23:46.437Z,99.99
2017-05-01T02:24:26.904Z,99.91
2017-05-01T02:25:07.386Z,99.99
2017-05-01T02:25:47.873Z,99.99
2017-05-01T02:26:28.374Z,99.99
2017-05-01T02:27:08.904Z,99.99
2017-05-01T02:27:49.363Z,99.99
2017-05-01T02:28:29.831Z,99.99
2017-05-01T02:29:10.338Z,99.99
2017-05-01T02:29:50.873Z,99.91
2017-05-01T02:30:31.358Z,99.91
2017-05-01T02:31:11.831Z,99.99
2017-05-01T02:31:52.307Z,99.99
2017-05-01T02:32:32.801Z,99.99
2017-05-01T02:33:13.293Z,99.91
2017-05-01T02:33:53.798Z,99.99
2017-05-01T02:34:34.246Z,99.99
2017-05-01T02:35:14.727Z,99.91
2017-05-01T02:35:55.216Z,99.99
2017-05-01T02:36:35.714Z,99.99
2017-05-01T02:37:16.224Z,99.35
2017-05-01T02:37:56.739Z,99.91
2017-05-01T02:38:37.225Z,99.26
2017-05-01T02:39:17.700Z,99.54
2017-05-01T02:39:58.173Z,99.54
2017-05-01T02:40:38.664Z,99.44
2017-05-01T02:41:19.141Z,99.63
2017-05-01T02:41:59.613Z,99.63
2017-05-01T02:42:40.053Z,99.35
2017-05-01T02:43:20.558Z,99.35
2017-05-01T02:45:19.655Z,99.54
2017-05-01T02:46:00.116Z,99.99
2017-05-01T02:46:40.637Z,99.99
2017-05-01T02:47:21.113Z,99.54
2017-05-01T02:48:01.580Z,99.54
2017-05-01T02:48:42.069Z,99.54
2017-05-01T02:49:22.538Z,99.54
2017-05-01T02:50:03.034Z,99.54
2017-05-01T02:50:43.506Z,99.44
2017-05-01T02:51:24.006Z,99.54
2017-05-01T02:52:04.513Z,99.44
2017-05-01T02:52:44.981Z,99.35
2017-05-01T02:53:25.512Z,99.16
2017-05-01T02:54:06.030Z,99.35
2017-05-01T02:54:46.496Z,99.73
2017-05-01T02:55:26.992Z,99.54
2017-05-01T02:56:07.499Z,99.54
2017-05-01T02:56:47.966Z,99.63
2017-05-01T02:57:28.445Z,99.99
2017-05-01T02:58:08.960Z,99.35
2017-05-01T02:58:49.436Z,99.99
2017-05-01T02:59:29.884Z,99.99
2017-05-01T03:00:10.396Z,99.91
2017-05-01T03:00:50.971Z,99.99
2017-05-01T03:01:31.433Z,99.99
2017-05-01T03:02:11.918Z,99.99
2017-05-01T03:02:52.420Z,99.99
2017-05-01T03:03:32.936Z,99.99
2017-05-01T03:04:13.454Z,99.99
2017-05-01T03:04:53.902Z,99.99
2017-05-01T03:05:34.440Z,99.99
2017-05-01T03:06:14.943Z,99.99
2017-05-01T03:06:55.434Z,99.91
2017-05-01T03:07:35.936Z,99.99
2017-05-01T03:08:16.437Z,99.99
2017-05-01T03:08:56.992Z,99.99
2017-05-01T03:09:37.509Z,99.99
2017-05-01T03:10:18.010Z,99.99
2017-05-01T03:10:58.498Z,99.99
2017-05-01T03:11:38.978Z,99.99
2017-05-01T03:12:19.469Z,99.99
2017-05-01T03:12:59.972Z,99.99
2017-05-01T03:13:40.477Z,99.99
2017-05-01T03:14:20.965Z,99.99
2017-05-01T03:15:01.436Z,99.99
2017-05-01T03:15:41.927Z,99.99
2017-05-01T03:16:22.433Z,99.99
2017-05-01T03:17:02.939Z,99.99
2017-05-01T03:17:43.433Z,99.99
2017-05-01T03:18:23.905Z,99.99
2017-05-01T03:19:04.376Z,99.99
2017-05-01T03:19:44.851Z,99.99
2017-05-01T03:20:25.324Z,99.99
2017-05-01T03:21:05.828Z,99.99
2017-05-01T03:21:46.341Z,99.91
2017-05-01T03:22:26.813Z,99.91
2017-05-01T03:23:07.321Z,99.99
2017-05-01T03:23:47.797Z,99.99
2017-05-01T03:24:28.289Z,99.99
2017-05-01T03:25:08.763Z,99.91
2017-05-01T03:25:49.259Z,99.99
2017-05-01T03:26:29.735Z,99.99
2017-05-01T03:27:10.220Z,99.99
2017-05-01T03:27:50.687Z,99.99
2017-05-01T03:28:31.197Z,99.99
2017-05-01T03:29:11.688Z,99.99
2017-05-01T03:29:52.241Z,99.99
2017-05-01T03:30:32.693Z,99.99
2017-05-01T03:31:13.183Z,99.99
2017-05-01T03:31:53.706Z,99.99
2017-05-01T03:32:34.192Z,99.82
2017-05-01T03:33:14.706Z,99.99
2017-05-01T03:33:55.187Z,99.99
2017-05-01T03:34:35.724Z,99.99
2017-05-01T03:35:16.221Z,99.99
2017-05-01T03:35:56.712Z,99.99
2017-05-01T03:36:37.205Z,99.99
2017-05-01T03:37:17.665Z,99.73
2017-05-01T03:37:58.150Z,99.99
2017-05-01T03:38:38.691Z,99.99
2017-05-01T03:39:19.167Z,99.99
2017-05-01T03:39:59.639Z,99.99
2017-05-01T03:40:40.163Z,99.99
2017-05-01T03:41:20.690Z,99.99
2017-05-01T03:42:01.179Z,99.99
2017-05-01T03:42:41.663Z,99.99
2017-05-01T03:43:22.191Z,99.99
2017-05-01T03:44:02.680Z,99.99
2017-05-01T03:44:43.207Z,99.99
2017-05-01T03:45:23.743Z,99.99
2017-05-01T03:46:04.239Z,99.99
2017-05-01T03:46:44.735Z,99.99
2017-05-01T03:47:26.123Z,99.99
2017-05-01T03:48:06.652Z,99.63
2017-05-01T03:48:47.141Z,99.99
2017-05-01T03:49:27.650Z,99.99
2017-05-01T03:50:08.119Z,99.99
2017-05-01T03:50:48.593Z,99.99
2017-05-01T03:51:29.088Z,99.99
2017-05-01T03:52:09.565Z,99.99
2017-05-01T03:52:50.038Z,99.99
2017-05-01T03:53:30.541Z,99.99
2017-05-01T03:54:11.100Z,99.99
2017-05-01T03:54:51.631Z,99.99
2017-05-01T03:55:32.109Z,99.99
2017-05-01T03:56:12.584Z,99.99
2017-05-01T03:56:53.061Z,99.99
2017-05-01T03:57:33.573Z,99.99
2017-05-01T03:58:14.035Z,99.99
2017-05-01T03:58:54.529Z,99.99
2017-05-01T03:59:35.010Z,99.99
2017-05-01T04:00:15.504Z,99.99
2017-05-01T04:00:55.977Z,99.99
2017-05-01T04:01:36.469Z,99.99
2017-05-01T04:02:17.021Z,99.99
2017-05-01T04:02:57.497Z,99.99
2017-05-01T04:03:37.986Z,99.99
2017-05-01T04:04:18.461Z,99.99
2017-05-01T04:04:58.924Z,99.99
2017-05-01T04:05:39.413Z,99.99
2017-05-01T04:06:19.893Z,99.99
2017-05-01T04:07:00.421Z,99.99
2017-05-01T04:07:40.971Z,99.99
2017-05-01T04:08:21.431Z,99.99
2017-05-01T04:09:01.935Z,99.99
2017-05-01T04:09:42.428Z,99.99
2017-05-01T04:10:22.885Z,99.99
2017-05-01T04:11:03.380Z,99.99
2017-05-01T04:11:43.876Z,99.99
2017-05-01T04:12:24.383Z,99.99
2017-05-01T04:13:04.882Z,99.99
2017-05-01T04:13:45.383Z,99.99
2017-05-01T04:14:25.830Z,99.99
2017-05-01T04:15:06.353Z,99.99
2017-05-01T04:15:46.853Z,99.99
2017-05-01T04:17:40.931Z,99.99
2017-05-01T04:18:21.556Z,99.99
2017-05-01T04:19:01.915Z,99.99
2017-05-01T04:19:42.404Z,99.99
2017-05-01T04:20:22.897Z,99.99
2017-05-01T04:21:03.406Z,99.99
2017-05-01T04:21:43.864Z,99.99
2017-05-01T04:22:24.358Z,99.99
2017-05-01T04:23:04.889Z,99.99
2017-05-01T04:23:45.346Z,99.99
2017-05-01T04:24:25.832Z,99.99
2017-05-01T04:25:06.304Z,99.99
2017-05-01T04:25:46.809Z,99.99
2017-05-01T04:26:27.293Z,99.99
2017-05-01T04:27:07.753Z,99.99
2017-05-01T04:27:48.235Z,99.99
2017-05-01T04:28:28.709Z,99.99
2017-05-01T04:29:09.237Z,99.99
2017-05-01T04:29:49.711Z,99.99
2017-05-01T04:30:30.197Z,99.99
2017-05-01T04:31:10.759Z,99.99
2017-05-01T04:31:51.209Z,99.99
2017-05-01T04:32:31.848Z,99.99
2017-05-01T04:33:12.205Z,99.99
2017-05-01T04:33:52.721Z,99.99
2017-05-01T04:34:33.187Z,99.99
2017-05-01T04:35:13.696Z,99.99
2017-05-01T04:37:28.691Z,99.99
2017-05-01T04:38:09.183Z,99.99
2017-05-01T04:38:49.641Z,99.99
2017-05-01T04:39:30.133Z,99.99
2017-05-01T04:40:10.617Z,99.99
2017-05-01T04:40:51.080Z,99.99
2017-05-01T04:41:31.581Z,99.99
2017-05-01T04:42:12.102Z,99.99
2017-05-01T04:42:52.586Z,99.99
2017-05-01T04:43:33.100Z,99.99
2017-05-01T04:44:13.578Z,99.99
2017-05-01T04:44:54.056Z,99.99
2017-05-01T04:45:34.562Z,99.99
2017-05-01T04:46:15.048Z,99.99
2017-05-01T04:46:55.564Z,99.99
2017-05-01T04:47:36.052Z,99.99
2017-05-01T04:48:16.530Z,99.99
2017-05-01T04:48:57.032Z,99.99
2017-05-01T04:49:37.524Z,99.99
2017-05-01T04:50:18.010Z,99.99
2017-05-01T04:50:58.533Z,99.99
2017-05-01T04:51:39.028Z,99.99
2017-05-01T04:52:19.559Z,99.99
2017-05-01T04:53:00.027Z,99.82
2017-05-01T04:53:40.530Z,99.99
2017-05-01T04:54:21.020Z,99.99
2017-05-01T04:55:01.555Z,99.99
2017-05-01T04:55:42.058Z,99.99
2017-05-01T04:56:22.546Z,99.82
2017-05-01T04:57:03.004Z,99.99
2017-05-01T04:57:43.499Z,99.99
2017-05-01T04:58:24.011Z,99.99
2017-05-01T04:59:04.520Z,99.99
2017-05-01T04:59:45.009Z,99.35
2017-05-01T05:00:25.469Z,99.44
2017-05-01T05:01:05.952Z,99.35
2017-05-01T05:01:46.444Z,99.35
2017-05-01T05:02:26.906Z,99.63
2017-05-01T05:03:07.412Z,99.3
2017-05-01T05:03:47.886Z,99.11
2017-05-01T05:04:28.390Z,99.3
2017-05-01T05:05:08.856Z,99.4
2017-05-01T05:05:49.331Z,99.49
2017-05-01T05:06:29.813Z,99.58
2017-05-01T05:07:10.324Z,99.02
2017-05-01T05:07:50.787Z,98.92
2017-05-01T05:08:31.249Z,98.83
2017-05-01T05:09:11.756Z,99.11
2017-05-01T05:09:52.219Z,99.3
2017-05-01T05:10:32.711Z,99.21
2017-05-01T05:11:13.181Z,99.21
2017-05-01T05:11:53.660Z,98.92
2017-05-01T05:12:34.118Z,99.49
2017-05-01T05:13:14.602Z,98.92
2017-05-01T05:13:55.080Z,98.83
2017-05-01T05:14:35.579Z,98.83
2017-05-01T05:15:16.077Z,98.73
2017-05-01T05:15:56.567Z,99.02
2017-05-01T05:16:37.025Z,98.54
2017-05-01T05:17:17.512Z,98.35
2017-05-01T05:17:57.985Z,98.35
2017-05-01T05:18:38.469Z,98.26
2017-05-01T05:19:18.952Z,98.35
2017-05-01T05:19:59.428Z,97.78
2017-05-01T05:20:39.906Z,98.07
2017-05-01T05:21:20.373Z,98.07
2017-05-01T05:22:00.944Z,98.16
2017-05-01T05:22:41.429Z,97.97
2017-05-01T05:23:21.929Z,97.6
2017-05-01T05:24:02.402Z,97.41
2017-05-01T05:24:42.912Z,97.6
2017-05-01T05:25:23.415Z,97.6
2017-05-01T05:26:03.892Z,97.41
2017-05-01T05:26:44.370Z,97.12
2017-05-01T05:27:24.839Z,97.41
2017-05-01T05:28:05.361Z,97.02
2017-05-01T05:28:45.820Z,97.5
2017-05-01T05:29:26.290Z,97.22
2017-05-01T05:30:06.773Z,96.64
2017-05-01T05:30:47.313Z,96.36
2017-05-01T05:31:27.801Z,96.93
2017-05-01T05:32:08.283Z,96.93
2017-05-01T05:32:48.759Z,97.07
2017-05-01T05:33:29.257Z,96.79
2017-05-01T05:34:09.782Z,96.79
2017-05-01T05:34:50.253Z,97.07
2017-05-01T05:35:30.796Z,96.31
2017-05-01T05:36:11.259Z,96.31
2017-05-01T05:36:51.743Z,96.22
2017-05-01T05:37:32.323Z,95.94
2017-05-01T05:38:12.800Z,95.55
2017-05-01T05:38:53.330Z,96.12
2017-05-01T05:39:33.866Z,95.75
2017-05-01T05:40:14.330Z,95.94
2017-05-01T05:40:54.801Z,95.94
2017-05-01T05:41:35.286Z,95.65
2017-05-01T05:42:15.793Z,95.75
2017-05-01T05:42:56.264Z,95.84
2017-05-01T05:43:36.768Z,95.46
2017-05-01T05:44:17.271Z,95.75
2017-05-01T05:44:57.811Z,95.17
2017-05-01T05:45:38.244Z,95.27
2017-05-01T05:46:18.774Z,95.36
2017-05-01T05:46:59.303Z,95.17
2017-05-01T05:47:39.821Z,95.08
2017-05-01T05:48:20.297Z,95.08
2017-05-01T05:49:00.785Z,94.98
2017-05-01T05:49:41.293Z,95.08
2017-05-01T05:50:21.793Z,95.17
2017-05-01T05:51:02.436Z,94.89
2017-05-01T05:51:42.915Z,94.51
2017-05-01T05:52:23.435Z,94.32
2017-05-01T05:53:03.870Z,94.13
2017-05-01T05:53:44.434Z,94.32
2017-05-01T05:54:24.887Z,94.27
2017-05-01T05:55:05.401Z,94.27
2017-05-01T05:55:45.893Z,94.23
2017-05-01T05:56:26.383Z,93.99
2017-05-01T05:57:06.888Z,94.08
2017-05-01T05:57:47.340Z,94.18
2017-05-01T05:58:27.841Z,94.08
2017-05-01T05:59:08.317Z,94.27
2017-05-01T05:59:48.824Z,93.99
2017-05-01T06:00:29.302Z,93.89
2017-05-01T06:01:09.828Z,94.18
2017-05-01T06:01:50.297Z,93.7
2017-05-01T06:02:30.830Z,93.7
2017-05-01T06:03:11.305Z,93.41
2017-05-01T06:03:51.788Z,93.32
2017-05-01T06:04:32.298Z,93.23
2017-05-01T06:05:12.763Z,93.04
2017-05-01T06:05:53.257Z,93.04
2017-05-01T06:06:33.735Z,93.41
2017-05-01T06:07:14.214Z,93.41
2017-05-01T06:07:54.702Z,93.32
2017-05-01T06:08:35.177Z,92.37
2017-05-01T06:09:15.648Z,92.37
2017-05-01T06:09:56.203Z,92.46
2017-05-01T06:10:36.700Z,92.56
2017-05-01T06:11:17.161Z,92.66
2017-05-01T06:11:57.688Z,92.46
2017-05-01T06:12:38.128Z,92.37
2017-05-01T06:13:18.607Z,92.18
2017-05-01T06:13:59.090Z,92.18
2017-05-01T06:14:39.568Z,92.08
2017-05-01T06:15:20.050Z,92.08
2017-05-01T06:16:00.538Z,92.18
2017-05-01T06:16:41.051Z,92.18
2017-05-01T06:17:21.538Z,92.18
2017-05-01T06:18:02.018Z,91.99
2017-05-01T06:18:42.510Z,91.99
2017-05-01T06:19:23.009Z,91.89
2017-05-01T06:20:03.487Z,91.37
2017-05-01T06:20:43.963Z,91.28
2017-05-01T06:21:24.422Z,91.18
2017-05-01T06:22:04.923Z,91.37
2017-05-01T06:22:45.464Z,91.37
2017-05-01T06:23:25.946Z,91.47
2017-05-01T06:24:06.428Z,91.66
2017-05-01T06:24:46.927Z,90.99
2017-05-01T06:25:27.426Z,90.99
2017-05-01T06:26:07.915Z,91.18
2017-05-01T06:26:48.453Z,90.8
2017-05-01T06:27:28.956Z,90.33
2017-05-01T06:28:09.401Z,90.14
2017-05-01T06:28:49.959Z,90.52
2017-05-01T06:29:30.486Z,90.52
2017-05-01T06:30:10.975Z,90.42
2017-05-01T06:30:51.488Z,90.42
2017-05-01T06:31:32.029Z,90.14
2017-05-01T06:32:12.524Z,89.66
2017-05-01T06:32:53.028Z,89.56
2017-05-01T06:33:33.514Z,89.66
2017-05-01T06:34:13.994Z,89.23
2017-05-01T06:34:54.461Z,89.14
2017-05-01T06:35:34.936Z,89.04
2017-05-01T06:36:15.433Z,89.04
2017-05-01T06:36:55.923Z,89.23
2017-05-01T06:37:36.393Z,89.23
2017-05-01T06:38:16.880Z,88.85
2017-05-01T06:38:57.402Z,88.56
2017-05-01T06:39:37.871Z,88.75
2017-05-01T06:40:18.347Z,88.37
2017-05-01T06:40:58.835Z,88.75
2017-05-01T06:41:39.322Z,87.61
2017-05-01T06:42:19.828Z,87.52
2017-05-01T06:43:00.338Z,87.61
2017-05-01T06:43:40.817Z,87.9
2017-05-01T06:44:21.371Z,88.32
2017-05-01T06:45:01.886Z,87.46
2017-05-01T06:45:42.369Z,87.65
2017-05-01T06:46:22.868Z,87.56
2017-05-01T06:47:03.351Z,86.99
2017-05-01T06:47:43.856Z,86.8
2017-05-01T06:48:24.356Z,86.32
2017-05-01T06:49:04.839Z,86.32
2017-05-01T06:49:45.319Z,86.51
2017-05-01T06:50:25.887Z,86.32
2017-05-01T06:51:06.322Z,85.75
2017-05-01T06:52:54.288Z,85.47
2017-05-01T06:53:34.806Z,84.89
2017-05-01T06:54:15.224Z,85.28
2017-05-01T06:54:55.710Z,85.47
2017-05-01T06:55:36.224Z,85.08
2017-05-01T06:56:16.686Z,85.08
2017-05-01T06:56:57.200Z,84.52
2017-05-01T06:57:37.670Z,85.18
2017-05-01T06:58:18.193Z,84.33
2017-05-01T06:58:58.687Z,84.42
2017-05-01T06:59:39.187Z,84.8
2017-05-01T07:00:19.632Z,85.18
2017-05-01T07:01:00.139Z,84.61
2017-05-01T07:01:40.628Z,85.28
2017-05-01T07:02:21.132Z,85.18
2017-05-01T07:03:01.601Z,85.18
2017-05-01T07:03:42.081Z,85.08
2017-05-01T07:04:22.553Z,84.99
2017-05-01T07:05:03.011Z,84.56
2017-05-01T07:05:43.500Z,84.7
2017-05-01T07:06:23.994Z,85.03
2017-05-01T07:07:04.490Z,84.56
2017-05-01T07:07:44.976Z,84.56
2017-05-01T07:08:25.458Z,84.65
2017-05-01T07:09:05.944Z,84.56
2017-05-01T07:09:46.455Z,84.56
2017-05-01T07:10:26.985Z,84.65
2017-05-01T07:11:07.519Z,84.84
2017-05-01T07:11:48.063Z,83.89
2017-05-01T07:12:28.573Z,83.8
2017-05-01T07:13:09.053Z,83.8
2017-05-01T07:13:49.553Z,84.46
2017-05-01T07:14:30.072Z,84.36
2017-05-01T07:15:10.569Z,84.75
2017-05-01T07:15:51.063Z,84.17
2017-05-01T07:16:31.544Z,83.8
2017-05-01T07:17:12.049Z,83.61
2017-05-01T07:17:52.532Z,83.7
2017-05-01T07:18:33.041Z,83.89
2017-05-01T07:19:13.633Z,83.7
2017-05-01T07:19:54.135Z,83.32
2017-05-01T07:20:34.634Z,83.32
2017-05-01T07:21:15.127Z,83.03
2017-05-01T07:21:55.648Z,82.37
2017-05-01T07:22:36.150Z,82.37
2017-05-01T07:23:16.663Z,82.84
2017-05-01T07:23:57.183Z,82.75
2017-05-01T07:24:37.681Z,82.75
2017-05-01T07:25:18.175Z,83.03
2017-05-01T07:25:58.676Z,83.03
2017-05-01T07:26:39.186Z,83.51
2017-05-01T07:27:26.245Z,83.61
2017-05-01T07:28:06.785Z,83.61
2017-05-01T07:28:47.283Z,83.8
2017-05-01T07:29:27.828Z,83.32
2017-05-01T07:30:08.325Z,83.13
2017-05-01T07:30:48.850Z,83.03
2017-05-01T07:31:29.355Z,82.84
2017-05-01T07:32:09.803Z,83.13
2017-05-01T07:32:50.315Z,83.03
2017-05-01T07:33:30.837Z,83.45
2017-05-01T07:34:11.353Z,82.98
2017-05-01T07:34:51.818Z,83.55
2017-05-01T07:35:32.305Z,83.36
2017-05-01T07:36:12.788Z,83.22
2017-05-01T07:36:53.314Z,82.89
2017-05-01T07:37:33.836Z,82.41
2017-05-01T07:38:14.286Z,82.5
2017-05-01T07:38:54.846Z,81.84
2017-05-01T07:39:35.352Z,81.74
2017-05-01T07:40:15.893Z,81.93
2017-05-01T07:40:56.423Z,81.46
2017-05-01T07:41:36.931Z,81.74
2017-05-01T07:42:17.394Z,81.65
2017-05-01T07:42:57.898Z,81.93
2017-05-01T07:43:38.372Z,81.74
2017-05-01T07:44:18.883Z,81.55
2017-05-01T07:44:59.347Z,80.88
2017-05-01T07:45:39.826Z,80.98
2017-05-01T07:46:20.292Z,81.17
2017-05-01T07:47:00.802Z,80.22
2017-05-01T07:47:41.263Z,80.22
2017-05-01T07:48:21.744Z,80.41
2017-05-01T07:49:02.217Z,80.44
2017-05-01T07:49:42.754Z,80.41
2017-05-01T07:52:01.929Z,80.16
2017-05-01T07:52:42.417Z,80.16
2017-05-01T07:53:22.897Z,80.16
2017-05-01T07:54:03.447Z,80.35
2017-05-01T07:54:43.912Z,80.26
2017-05-01T07:55:24.413Z,79.97
2017-05-01T07:56:04.892Z,79.4
2017-05-01T07:56:45.402Z,79.4
2017-05-01T07:57:25.897Z,79.68
2017-05-01T07:58:06.382Z,79.88
2017-05-01T07:58:46.848Z,79.3
2017-05-01T07:59:27.331Z,79.4
2017-05-01T08:00:07.823Z,78.92
2017-05-01T08:00:48.339Z,78.83
2017-05-01T08:01:28.787Z,78.92
2017-05-01T08:02:09.263Z,78.35
2017-05-01T08:02:49.758Z,78.64
2017-05-01T08:03:30.266Z,78.64
2017-05-01T08:04:10.771Z,78.73
2017-05-01T08:04:51.271Z,78.83
2017-05-01T08:05:31.820Z,78.3
2017-05-01T08:06:12.284Z,78.44
2017-05-01T08:06:52.798Z,77.82
2017-05-01T08:07:33.230Z,77.72
2017-05-01T08:08:13.729Z,77.53
2017-05-01T08:08:54.178Z,77.53
2017-05-01T08:09:34.662Z,77.34
2017-05-01T08:10:15.138Z,78.2
2017-05-01T08:10:55.611Z,78.39
2017-05-01T08:11:36.108Z,78.1
2017-05-01T08:12:16.583Z,78.1
2017-05-01T08:12:57.071Z,77.72
2017-05-01T08:13:37.558Z,77.91
2017-05-01T08:14:18.042Z,77.62
2017-05-01T08:14:58.516Z,77.53
2017-05-01T08:15:38.979Z,77.06
2017-05-01T08:16:19.480Z,77.06
2017-05-01T08:18:07.441Z,76.57
2017-05-01T08:18:47.933Z,76.14
2017-05-01T08:19:28.421Z,75.81
2017-05-01T08:20:08.918Z,75.47
2017-05-01T08:20:49.435Z,76.14
2017-05-01T08:21:29.939Z,75.85
2017-05-01T08:22:10.421Z,75.57
2017-05-01T08:22:50.933Z,76.62
2017-05-01T08:23:31.377Z,76.42
2017-05-01T08:24:11.870Z,76.52
2017-05-01T08:24:52.388Z,75.85
2017-05-01T08:25:32.874Z,76.23
2017-05-01T08:26:13.364Z,75.76
2017-05-01T08:26:53.841Z,75.85
2017-05-01T08:27:34.353Z,75.66
2017-05-01T08:28:14.833Z,75.57
2017-05-01T08:28:55.323Z,74.9
2017-05-01T08:29:35.804Z,74.8
2017-05-01T08:30:16.288Z,74.71
2017-05-01T08:30:56.781Z,74.42
2017-05-01T08:31:37.286Z,74.23
2017-05-01T08:32:17.816Z,74.71
2017-05-01T08:32:58.289Z,74.8
2017-05-01T08:33:38.751Z,75.22
2017-05-01T08:34:19.236Z,75.79
2017-05-01T08:34:59.740Z,75.42
2017-05-01T08:35:40.225Z,75.03
2017-05-01T08:36:20.726Z,75.22
2017-05-01T08:37:01.228Z,74.93
2017-05-01T08:37:41.761Z,74.74
2017-05-01T08:38:22.273Z,74.84
2017-05-01T08:39:02.755Z,74.74
2017-05-01T08:39:43.223Z,74.74
2017-05-01T08:40:23.706Z,74.65
2017-05-01T08:41:04.252Z,74.37
2017-05-01T08:41:44.719Z,74.17
2017-05-01T08:42:25.188Z,74.17
2017-05-01T08:43:05.685Z,74.08
2017-05-01T08:43:46.193Z,74.17
2017-05-01T08:44:26.682Z,73.98
2017-05-01T08:45:07.191Z,73.69
2017-05-01T08:47:00.281Z,73.6
2017-05-01T08:47:40.744Z,73.69
2017-05-01T08:48:21.210Z,73.88
2017-05-01T08:49:01.738Z,73.79
2017-05-01T08:49:42.224Z,74.27
2017-05-01T08:50:22.701Z,73.88
2017-05-01T08:51:03.186Z,73.5
2017-05-01T08:51:43.672Z,73.79
2017-05-01T08:52:24.183Z,73.63
2017-05-01T08:53:04.663Z,73.73